METAR Data
IDs: Format: Raw Decoded Include TAF

Data at: 0045 UTC 20 Jul 2019

METAR for:PAOU (Nelson Lagoon Arpt, AK, US)
Text:PAOU 200037Z AUTO 29014KT 2SM -RA BR BKN005 OVC011 12/12 A3028 RMK AO2 VIS 1 1/2V3 P0000
Temperature: 12.0°C ( 54°F)
Dewpoint: 12.0°C ( 54°F) [RH = 100%]
Pressure (altimeter):30.28 inches Hg (1025.5 mb)
Winds:from the WNW (290 degrees) at 16 MPH (14 knots; 7.2 m/s)
Visibility: 2.00 sm ( 3.22 km)
Ceiling:500 feet AGL
Clouds: broken clouds at 500 feet AGL, overcast cloud deck at 1100 feet AGL
Weather:-RA BR (light rain, mist)
QC Flag:automated observation with no human augmentation
Text:PAOU 200005Z AUTO 29013KT 1 1/4SM -RA BR BKN005 OVC008 12/12 A3029 RMK AO2 P0000
Temperature: 12.0°C ( 54°F)
Dewpoint: 12.0°C ( 54°F) [RH = 100%]
Pressure (altimeter):30.29 inches Hg (1025.8 mb)
Winds:from the WNW (290 degrees) at 15 MPH (13 knots; 6.7 m/s)
Visibility: 1.25 sm ( 2.01 km)
Ceiling:500 feet AGL
Clouds: broken clouds at 500 feet AGL, overcast cloud deck at 800 feet AGL
Weather:-RA BR (light rain, mist)
QC Flag:automated observation with no human augmentation
Text:PAOU 192356Z AUTO 29013KT 2SM -RA BR BKN005 OVC008 12/12 A3029 RMK AO2 SLP256 P0000 60000 T01220117 10122 20117 51007
Temperature: 12.2°C ( 54°F)
Dewpoint: 11.7°C ( 53°F) [RH = 97%]
Pressure (altimeter):30.29 inches Hg (1025.8 mb) [Sea level pressure: 1025.6 mb]
Winds:from the WNW (290 degrees) at 15 MPH (13 knots; 6.7 m/s)
Visibility: 2.00 sm ( 3.22 km)
Ceiling:500 feet AGL
Clouds: broken clouds at 500 feet AGL, overcast cloud deck at 800 feet AGL
Weather:-RA BR (light rain, mist)
QC Flag:automated observation with no human augmentation
Text:PAOU 192312Z AUTO 28014KT 1 3/4SM -RA BR BKN005 OVC010 12/11 A3029 RMK AO2 CIG 003V007 P0000
Temperature: 12.0°C ( 54°F)
Dewpoint: 11.0°C ( 52°F) [RH = 94%]
Pressure (altimeter):30.29 inches Hg (1025.8 mb)
Winds:from the W (280 degrees) at 16 MPH (14 knots; 7.2 m/s)
Visibility: 1.75 sm ( 2.82 km)
Ceiling:500 feet AGL
Clouds: broken clouds at 500 feet AGL, overcast cloud deck at 1000 feet AGL
Weather:-RA BR (light rain, mist)
QC Flag:automated observation with no human augmentation
Text:PAOU 192256Z AUTO 29012KT 2SM -RA BR BKN005 OVC010 12/11 A3029 RMK AO2 VIS 1 1/2V3 CIG 003V008 SLP256 P0000 T01170111
Temperature: 11.7°C ( 53°F)
Dewpoint: 11.1°C ( 52°F) [RH = 96%]
Pressure (altimeter):30.29 inches Hg (1025.8 mb) [Sea level pressure: 1025.6 mb]
Winds:from the WNW (290 degrees) at 14 MPH (12 knots; 6.2 m/s)
Visibility: 2.00 sm ( 3.22 km)
Ceiling:500 feet AGL
Clouds: broken clouds at 500 feet AGL, overcast cloud deck at 1000 feet AGL
Weather:-RA BR (light rain, mist)
QC Flag:automated observation with no human augmentation
Text:PAOU 192218Z AUTO 30012KT 1 3/4SM -RA BR OVC005 12/11 A3028 RMK AO2 VIS 1 1/4V2 CIG 003V007 P0000
Temperature: 12.0°C ( 54°F)
Dewpoint: 11.0°C ( 52°F) [RH = 94%]
Pressure (altimeter):30.28 inches Hg (1025.5 mb)
Winds:from the WNW (300 degrees) at 14 MPH (12 knots; 6.2 m/s)
Visibility: 1.75 sm ( 2.82 km)
Ceiling:500 feet AGL
Clouds: overcast cloud deck at 500 feet AGL
Weather:-RA BR (light rain, mist)
QC Flag:automated observation with no human augmentation
Text:PAOU 192156Z AUTO 30013KT 1 1/2SM -RA BR BKN003 OVC007 12/11 A3028 RMK AO2 SLP252 P0000 T01170111
Temperature: 11.7°C ( 53°F)
Dewpoint: 11.1°C ( 52°F) [RH = 96%]
Pressure (altimeter):30.28 inches Hg (1025.5 mb) [Sea level pressure: 1025.2 mb]
Winds:from the WNW (300 degrees) at 15 MPH (13 knots; 6.7 m/s)
Visibility: 1.50 sm ( 2.41 km)
Ceiling:300 feet AGL
Clouds: broken clouds at 300 feet AGL, overcast cloud deck at 700 feet AGL
Weather:-RA BR (light rain, mist)
QC Flag:automated observation with no human augmentation
Text:PAOU 192126Z AUTO 30014KT 1 3/4SM -RA BR BKN005 OVC012 12/11 A3027 RMK AO2 CIG 003V010 P0000
Temperature: 12.0°C ( 54°F)
Dewpoint: 11.0°C ( 52°F) [RH = 94%]
Pressure (altimeter):30.27 inches Hg (1025.1 mb)
Winds:from the WNW (300 degrees) at 16 MPH (14 knots; 7.2 m/s)
Visibility: 1.75 sm ( 2.82 km)
Ceiling:500 feet AGL
Clouds: broken clouds at 500 feet AGL, overcast cloud deck at 1200 feet AGL
Weather:-RA BR (light rain, mist)
QC Flag:automated observation with no human augmentation
Text:PAOU 192115Z AUTO 29014KT 3SM -RA BR OVC005 12/11 A3027 RMK AO2 CIG 003V010 P0000
Temperature: 12.0°C ( 54°F)
Dewpoint: 11.0°C ( 52°F) [RH = 94%]
Pressure (altimeter):30.27 inches Hg (1025.1 mb)
Winds:from the WNW (290 degrees) at 16 MPH (14 knots; 7.2 m/s)
Visibility: 3 sm ( 5 km)
Ceiling:500 feet AGL
Clouds: overcast cloud deck at 500 feet AGL
Weather:-RA BR (light rain, mist)
QC Flag:automated observation with no human augmentation
Text:PAOU 192110Z AUTO 29014KT 2SM -RA BR OVC003 12/11 A3027 RMK AO2 CIG 003V008 P0000
Temperature: 12.0°C ( 54°F)
Dewpoint: 11.0°C ( 52°F) [RH = 94%]
Pressure (altimeter):30.27 inches Hg (1025.1 mb)
Winds:from the WNW (290 degrees) at 16 MPH (14 knots; 7.2 m/s)
Visibility: 2.00 sm ( 3.22 km)
Ceiling:300 feet AGL
Clouds: overcast cloud deck at 300 feet AGL
Weather:-RA BR (light rain, mist)
QC Flag:automated observation with no human augmentation
Text:PAOU 192105Z AUTO 29014KT 1 1/2SM -RA BR OVC005 12/11 A3027 RMK AO2 CIG 003V009 P0000
Temperature: 12.0°C ( 54°F)
Dewpoint: 11.0°C ( 52°F) [RH = 94%]
Pressure (altimeter):30.27 inches Hg (1025.1 mb)
Winds:from the WNW (290 degrees) at 16 MPH (14 knots; 7.2 m/s)
Visibility: 1.50 sm ( 2.41 km)
Ceiling:500 feet AGL
Clouds: overcast cloud deck at 500 feet AGL
Weather:-RA BR (light rain, mist)
QC Flag:automated observation with no human augmentation
Text:PAOU 192056Z AUTO 29013KT 2SM -RA BR BKN005 OVC012 12/11 A3027 RMK AO2 CIG 004V009 SLP249 P0000 60000 T01170111 51012
Temperature: 11.7°C ( 53°F)
Dewpoint: 11.1°C ( 52°F) [RH = 96%]
Pressure (altimeter):30.27 inches Hg (1025.1 mb) [Sea level pressure: 1024.9 mb]
Winds:from the WNW (290 degrees) at 15 MPH (13 knots; 6.7 m/s)
Visibility: 2.00 sm ( 3.22 km)
Ceiling:500 feet AGL
Clouds: broken clouds at 500 feet AGL, overcast cloud deck at 1200 feet AGL
Weather:-RA BR (light rain, mist)
QC Flag:automated observation with no human augmentation
Text:PAOU 192045Z AUTO 28011KT 1 1/2SM -RA BR BKN005 OVC012 12/11 A3026 RMK AO2 CIG 004V008 P0000
Temperature: 12.0°C ( 54°F)
Dewpoint: 11.0°C ( 52°F) [RH = 94%]
Pressure (altimeter):30.26 inches Hg (1024.8 mb)
Winds:from the W (280 degrees) at 13 MPH (11 knots; 5.7 m/s)
Visibility: 1.50 sm ( 2.41 km)
Ceiling:500 feet AGL
Clouds: broken clouds at 500 feet AGL, overcast cloud deck at 1200 feet AGL
Weather:-RA BR (light rain, mist)
QC Flag:automated observation with no human augmentation
Text:PAOU 192038Z AUTO 29011KT 2SM BR SCT007 OVC012 12/11 A3026 RMK AO2 RAE27 P0000
Temperature: 12.0°C ( 54°F)
Dewpoint: 11.0°C ( 52°F) [RH = 94%]
Pressure (altimeter):30.26 inches Hg (1024.8 mb)
Winds:from the WNW (290 degrees) at 13 MPH (11 knots; 5.7 m/s)
Visibility: 2.00 sm ( 3.22 km)
Ceiling:1200 feet AGL
Clouds: scattered clouds at 700 feet AGL, overcast cloud deck at 1200 feet AGL
Weather:BR (mist)
QC Flag:automated observation with no human augmentation
Text:PAOU 192012Z AUTO 30013KT 2SM -RA BR OVC010 12/11 A3026 RMK AO2 CIG 006V012 P0000
Temperature: 12.0°C ( 54°F)
Dewpoint: 11.0°C ( 52°F) [RH = 94%]
Pressure (altimeter):30.26 inches Hg (1024.8 mb)
Winds:from the WNW (300 degrees) at 15 MPH (13 knots; 6.7 m/s)
Visibility: 2.00 sm ( 3.22 km)
Ceiling:1000 feet AGL
Clouds: overcast cloud deck at 1000 feet AGL
Weather:-RA BR (light rain, mist)
QC Flag:automated observation with no human augmentation
Text:PAOU 192003Z AUTO 31012KT 3SM BR FEW006 OVC010 12/11 A3026 RMK AO2 RAE01 P0000
Temperature: 12.0°C ( 54°F)
Dewpoint: 11.0°C ( 52°F) [RH = 94%]
Pressure (altimeter):30.26 inches Hg (1024.8 mb)
Winds:from the NW (310 degrees) at 14 MPH (12 knots; 6.2 m/s)
Visibility: 3 sm ( 5 km)
Ceiling:1000 feet AGL
Clouds: few clouds at 600 feet AGL, overcast cloud deck at 1000 feet AGL
Weather:BR (mist)
QC Flag:automated observation with no human augmentation
Text:PAOU 191956Z AUTO 30011KT 2 1/2SM -RA BR BKN006 OVC010 12/11 A3026 RMK AO2 CIG 003V009 SLP246 P0000 T01170111
Temperature: 11.7°C ( 53°F)
Dewpoint: 11.1°C ( 52°F) [RH = 96%]
Pressure (altimeter):30.26 inches Hg (1024.8 mb) [Sea level pressure: 1024.6 mb]
Winds:from the WNW (300 degrees) at 13 MPH (11 knots; 5.7 m/s)
Visibility: 2.50 sm ( 4.02 km)
Ceiling:600 feet AGL
Clouds: broken clouds at 600 feet AGL, overcast cloud deck at 1000 feet AGL
Weather:-RA BR (light rain, mist)
QC Flag:automated observation with no human augmentation
Text:PAOU 191941Z AUTO 30014KT 2SM -RA BR OVC006 12/11 A3026 RMK AO2 CIG 003V010 P0000
Temperature: 12.0°C ( 54°F)
Dewpoint: 11.0°C ( 52°F) [RH = 94%]
Pressure (altimeter):30.26 inches Hg (1024.8 mb)
Winds:from the WNW (300 degrees) at 16 MPH (14 knots; 7.2 m/s)
Visibility: 2.00 sm ( 3.22 km)
Ceiling:600 feet AGL
Clouds: overcast cloud deck at 600 feet AGL
Weather:-RA BR (light rain, mist)
QC Flag:automated observation with no human augmentation
Text:PAOU 191935Z AUTO 30014KT 1 3/4SM -RA BR BKN005 OVC008 12/11 A3025 RMK AO2 CIG 003V008 P0000
Temperature: 12.0°C ( 54°F)
Dewpoint: 11.0°C ( 52°F) [RH = 94%]
Pressure (altimeter):30.25 inches Hg (1024.5 mb)
Winds:from the WNW (300 degrees) at 16 MPH (14 knots; 7.2 m/s)
Visibility: 1.75 sm ( 2.82 km)
Ceiling:500 feet AGL
Clouds: broken clouds at 500 feet AGL, overcast cloud deck at 800 feet AGL
Weather:-RA BR (light rain, mist)
QC Flag:automated observation with no human augmentation
Text:PAOU 191923Z AUTO 30012KT 2 1/2SM -RA BR OVC008 12/11 A3025 RMK AO2 VIS 1 1/2V3 CIG 007V011 P0000
Temperature: 12.0°C ( 54°F)
Dewpoint: 11.0°C ( 52°F) [RH = 94%]
Pressure (altimeter):30.25 inches Hg (1024.5 mb)
Winds:from the WNW (300 degrees) at 14 MPH (12 knots; 6.2 m/s)
Visibility: 2.50 sm ( 4.02 km)
Ceiling:800 feet AGL
Clouds: overcast cloud deck at 800 feet AGL
Weather:-RA BR (light rain, mist)
QC Flag:automated observation with no human augmentation
Text:PAOU 191906Z AUTO 31014KT 3SM -RA BR OVC008 12/11 A3025 RMK AO2 CIG 007V012 P0000
Temperature: 12.0°C ( 54°F)
Dewpoint: 11.0°C ( 52°F) [RH = 94%]
Pressure (altimeter):30.25 inches Hg (1024.5 mb)
Winds:from the NW (310 degrees) at 16 MPH (14 knots; 7.2 m/s)
Visibility: 3 sm ( 5 km)
Ceiling:800 feet AGL
Clouds: overcast cloud deck at 800 feet AGL
Weather:-RA BR (light rain, mist)
QC Flag:automated observation with no human augmentation
Text:PAOU 191856Z AUTO 31016KT 2 1/2SM -RA BR OVC008 12/11 A3025 RMK AO2 CIG 005V012 SLP242 P0000 T01170111
Temperature: 11.7°C ( 53°F)
Dewpoint: 11.1°C ( 52°F) [RH = 96%]
Pressure (altimeter):30.25 inches Hg (1024.5 mb) [Sea level pressure: 1024.2 mb]
Winds:from the NW (310 degrees) at 18 MPH (16 knots; 8.2 m/s)
Visibility: 2.50 sm ( 4.02 km)
Ceiling:800 feet AGL
Clouds: overcast cloud deck at 800 feet AGL
Weather:-RA BR (light rain, mist)
QC Flag:automated observation with no human augmentation

TAF for:PAOU (Nelson Lagoon Arpt, AK, US)
Text:No data found